Time;durP1;ratioP1;P1;durP2;ratioP2;P2;SDS_P1;SDS_P2;PMS_P1;PMS_P2;Temp;Humidity;BMP_temperature;BMP_pressure;BME280_temperature;BME280_humidity;BME280_pressure;Samples;Min_cycle;Max_cycle;Signal;HPM_P1;HPM_P2
2023/12/01 00:01:07;;;;;;;8.45;5.93;;;;;;;10.42;62.32;100334.25;5028042;28;20061;-53
2023/12/01 00:03:32;;;;;;;7.60;5.50;;;;;;;10.43;62.12;100338.59;5030270;28;20045;-53
2023/12/01 00:05:57;;;;;;;8.43;5.47;;;;;;;10.44;62.45;100353.63;5028307;28;20072;-53
2023/12/01 00:08:23;;;;;;;5.65;4.80;;;;;;;10.43;62.42;100349.25;5030573;28;20033;-54
2023/12/01 00:10:48;;;;;;;7.20;5.00;;;;;;;10.44;62.39;100344.78;5029195;28;20033;-53
2023/12/01 00:13:13;;;;;;;8.88;5.72;;;;;;;10.43;62.17;100343.91;5028911;28;20452;-54
2023/12/01 00:15:39;;;;;;;7.45;5.03;;;;;;;10.43;62.18;100349.25;5028598;28;20482;-54
2023/12/01 00:18:04;;;;;;;7.40;4.70;;;;;;;10.43;62.36;100349.25;5029300;28;20033;-53
2023/12/01 00:20:29;;;;;;;7.53;5.57;;;;;;;10.42;62.23;100350.22;5028231;28;20037;-54
2023/12/01 00:22:55;;;;;;;7.90;5.25;;;;;;;10.43;62.23;100340.41;5029363;28;20041;-54
2023/12/01 00:25:20;;;;;;;7.88;5.47;;;;;;;10.43;62.17;100357.22;5028324;28;20022;-54
2023/12/01 00:27:46;;;;;;;7.07;5.32;;;;;;;10.42;62.43;100360.84;5028810;28;20414;-53
2023/12/01 00:30:11;;;;;;;7.57;5.40;;;;;;;10.42;62.13;100360.84;5031314;28;20087;-54
2023/12/01 00:32:37;;;;;;;8.48;5.63;;;;;;;10.42;62.24;100360.84;5028123;28;20029;-54
2023/12/01 00:35:02;;;;;;;7.55;5.22;;;;;;;10.42;62.30;100360.84;5028345;28;20025;-54
2023/12/01 00:37:27;;;;;;;9.27;5.63;;;;;;;10.43;62.19;100362.53;5029299;28;20541;-53
2023/12/01 00:39:53;;;;;;;8.38;5.75;;;;;;;10.42;62.21;100360.84;5033269;28;20057;-53
2023/12/01 00:42:18;;;;;;;8.57;5.50;;;;;;;10.42;62.10;100360.84;5028332;28;20072;-53
2023/12/01 00:44:45;;;;;;;7.10;4.88;;;;;;;10.43;62.18;100364.38;5028416;28;20037;-53
2023/12/01 00:47:10;;;;;;;8.20;5.20;;;;;;;10.43;62.16;100364.38;5031120;28;20037;-54
2023/12/01 00:49:35;;;;;;;8.00;5.32;;;;;;;10.43;61.90;100362.53;5029293;28;20029;-53
2023/12/01 00:52:01;;;;;;;8.15;5.40;;;;;;;10.42;62.16;100360.84;5031150;28;20040;-54
2023/12/01 00:54:26;;;;;;;8.68;4.90;;;;;;;10.43;62.03;100362.53;5028497;28;20037;-53
2023/12/01 00:56:52;;;;;;;7.95;5.30;;;;;;;10.43;62.13;100367.88;5028002;28;20785;-54
2023/12/01 00:59:17;;;;;;;8.52;5.85;;;;;;;10.43;62.00;100375.84;5026141;28;20064;-54
2023/12/01 01:01:42;;;;;;;7.30;5.13;;;;;;;10.43;62.05;100378.50;5027021;28;20057;-53
2023/12/01 01:04:08;;;;;;;6.95;5.00;;;;;;;10.44;62.18;100382.06;5028159;28;20045;-54
2023/12/01 01:06:33;;;;;;;8.07;5.32;;;;;;;10.44;61.95;100387.38;5027506;28;20574;-54
2023/12/01 01:08:58;;;;;;;9.77;5.85;;;;;;;10.43;62.31;100383.00;5027638;28;20037;-53
2023/12/01 01:11:24;;;;;;;8.02;5.07;;;;;;;10.41;62.12;100383.09;5028739;28;20034;-53
2023/12/01 01:13:49;;;;;;;7.75;5.28;;;;;;;10.42;62.32;100386.63;5027104;28;20124;-53
2023/12/01 01:16:14;;;;;;;7.07;5.57;;;;;;;10.42;61.90;100387.47;5030688;28;20040;-54
2023/12/01 01:18:40;;;;;;;7.95;5.25;;;;;;;10.43;62.10;100393.63;5024152;28;20041;-54
2023/12/01 01:21:05;;;;;;;7.90;5.30;;;;;;;10.41;61.95;100385.75;5030502;28;20049;-53
2023/12/01 01:23:31;;;;;;;7.18;5.05;;;;;;;10.42;62.10;100392.78;5029018;28;20033;-54
2023/12/01 01:25:56;;;;;;;8.48;5.13;;;;;;;10.41;62.33;100401.72;5030660;28;20026;-53
2023/12/01 01:28:21;;;;;;;6.78;4.97;;;;;;;10.42;62.15;100395.47;5027984;28;20475;-53
2023/12/01 01:30:47;;;;;;;8.80;5.50;;;;;;;10.42;62.20;100392.78;5027071;28;20036;-54
2023/12/01 01:33:12;;;;;;;7.25;4.97;;;;;;;10.41;62.21;100388.41;5027358;28;20383;-54
2023/12/01 01:35:37;;;;;;;7.32;5.22;;;;;;;10.42;61.98;100398.13;5032641;28;20025;-54
2023/12/01 01:38:03;;;;;;;7.72;5.05;;;;;;;10.41;62.11;100401.72;5029009;28;20388;-54
2023/12/01 01:40:28;;;;;;;7.22;4.90;;;;;;;10.42;62.34;100397.28;5031113;28;20040;-54
2023/12/01 01:42:54;;;;;;;8.75;5.38;;;;;;;10.41;62.26;100400.88;5026988;28;20103;-53
2023/12/01 01:45:19;;;;;;;9.43;5.90;;;;;;;10.41;62.22;100407.03;5027328;28;20121;-53
2023/12/01 01:47:44;;;;;;;10.02;5.65;;;;;;;10.41;62.07;100409.72;5027229;28;20025;-54
2023/12/01 01:50:10;;;;;;;8.13;5.82;;;;;;;10.40;62.34;100413.34;5029243;28;20091;-54
2023/12/01 01:52:37;;;;;;;7.57;5.28;;;;;;;10.41;62.12;100414.19;5026792;28;20037;-54
2023/12/01 01:55:02;;;;;;;6.82;5.10;;;;;;;10.40;62.33;100417.81;5029641;28;20034;-54
2023/12/01 01:57:30;;;;;;;9.82;6.47;;;;;;;10.41;62.04;100422.19;5028150;28;20104;-53
2023/12/01 01:59:56;;;;;;;9.20;5.55;;;;;;;10.41;62.27;100416.84;5024181;28;20033;-54
2023/12/01 02:02:22;;;;;;;7.63;5.32;;;;;;;10.41;62.34;100424.84;5029974;28;20049;-53
2023/12/01 02:04:48;;;;;;;7.43;5.47;;;;;;;10.40;62.07;100423.16;5027175;28;20121;-53
2023/12/01 02:07:26;;;;;;;8.10;5.25;;;;;;;10.42;62.24;100426.56;5026520;28;20116;-54
2023/12/01 02:09:54;;;;;;;7.25;4.93;;;;;;;10.40;62.19;100426.66;5034171;28;20025;-53
2023/12/01 02:12:19;;;;;;;7.35;4.68;;;;;;;10.41;62.21;100431.00;5030982;28;20029;-53
2023/12/01 02:14:45;;;;;;;8.90;4.70;;;;;;;10.41;62.12;100436.31;5030987;28;20379;-54
2023/12/01 02:17:10;;;;;;;7.88;4.90;;;;;;;10.40;62.38;100437.31;5031886;28;20033;-54
2023/12/01 02:19:36;;;;;;;8.30;5.15;;;;;;;10.40;61.91;100434.63;5033165;28;20037;-52
2023/12/01 02:22:01;;;;;;;7.70;5.43;;;;;;;10.40;62.08;100431.97;5031348;28;20065;-53
2023/12/01 02:24:26;;;;;;;7.90;4.80;;;;;;;10.40;62.14;100426.66;5030782;28;20041;-54
2023/12/01 02:26:52;;;;;;;10.13;5.82;;;;;;;10.40;62.03;100424.00;5030782;28;20383;-54
2023/12/01 02:29:17;;;;;;;10.38;5.57;;;;;;;10.40;62.32;100431.13;5030563;28;20095;-53
2023/12/01 02:31:42;;;;;;;8.02;5.22;;;;;;;10.39;61.97;100435.59;5032231;28;20022;-54
2023/12/01 02:34:08;;;;;;;8.05;5.70;;;;;;;10.39;62.00;100430.25;5033995;28;20112;-52
2023/12/01 02:36:33;;;;;;;9.10;5.30;;;;;;;10.38;62.13;100436.56;5030510;28;20029;-54
2023/12/01 02:38:58;;;;;;;7.82;5.28;;;;;;;10.39;62.21;100440.91;5031592;28;20033;-54
2023/12/01 02:41:24;;;;;;;8.95;5.57;;;;;;;10.39;62.04;100438.25;5029581;28;20481;-54
2023/12/01 02:43:49;;;;;;;8.88;5.03;;;;;;;10.40;62.19;100441.78;5033717;28;20432;-54
2023/12/01 02:46:15;;;;;;;8.02;5.00;;;;;;;10.39;61.94;100440.91;5030798;28;20025;-53
2023/12/01 02:48:41;;;;;;;7.95;5.18;;;;;;;10.39;62.06;100443.56;5027364;28;20372;-54
2023/12/01 02:51:07;;;;;;;9.68;5.18;;;;;;;10.39;61.97;100434.75;5030218;28;20418;-53
2023/12/01 02:53:33;;;;;;;9.48;5.78;;;;;;;10.38;62.21;100433.91;5029598;28;20044;-53
2023/12/01 02:55:59;;;;;;;9.25;5.50;;;;;;;10.39;62.01;100432.06;5030728;28;20033;-54
2023/12/01 02:58:24;;;;;;;9.93;6.07;;;;;;;10.38;62.11;100433.91;5030750;28;20410;-54
2023/12/01 03:00:50;;;;;;;9.27;5.10;;;;;;;10.38;62.13;100433.91;5027559;28;20094;-54
2023/12/01 03:03:15;;;;;;;8.85;5.18;;;;;;;10.37;62.17;100430.34;5032019;28;20037;-54
2023/12/01 03:05:41;;;;;;;9.45;5.68;;;;;;;10.37;61.95;100442.81;5029776;28;20040;-53
2023/12/01 03:08:06;;;;;;;11.18;5.90;;;;;;;10.37;61.73;100433.03;5033285;28;20548;-53
2023/12/01 03:10:32;;;;;;;10.05;6.15;;;;;;;10.37;62.06;100440.16;5031029;28;20036;-54
2023/12/01 03:12:57;;;;;;;9.60;5.38;;;;;;;10.37;62.20;100434.84;5030798;28;20030;-53
2023/12/01 03:15:24;;;;;;;8.85;6.18;;;;;;;10.37;62.04;100437.50;5032076;28;20172;-54
2023/12/01 03:17:49;;;;;;;8.93;5.70;;;;;;;10.37;62.06;100432.19;5028581;28;20038;-53
2023/12/01 03:20:15;;;;;;;10.27;5.65;;;;;;;10.36;61.92;100431.34;5030425;28;20356;-54
2023/12/01 03:22:43;;;;;;;7.90;5.55;;;;;;;10.36;61.90;100441.97;5026901;28;20494;-54
2023/12/01 03:25:12;;;;;;;8.82;5.00;;;;;;;10.36;61.99;100438.47;5031737;28;20102;-54
2023/12/01 03:27:42;;;;;;;10.60;6.50;;;;;;;10.36;61.90;100430.50;5031614;28;20040;-54
2023/12/01 03:30:15;;;;;;;8.85;5.60;;;;;;;10.36;61.95;100446.47;5029767;28;20070;-53
2023/12/01 03:32:48;;;;;;;9.65;5.93;;;;;;;10.36;61.85;100434.00;5029262;28;20133;-54
2023/12/01 03:35:20;;;;;;;11.05;5.88;;;;;;;10.36;61.79;100441.97;5032844;28;20493;-54
2023/12/01 03:37:45;;;;;;;11.48;6.40;;;;;;;10.37;62.07;100449.00;5032925;28;20080;-53
2023/12/01 03:40:14;;;;;;;10.57;5.90;;;;;;;10.37;62.31;100448.16;5032937;28;20483;-53
2023/12/01 03:42:46;;;;;;;8.45;5.22;;;;;;;10.36;62.01;100441.13;5029439;28;20040;-53
2023/12/01 03:45:12;;;;;;;;;;;;;;;10.42;62.13;100448.69;5030571;28;20026;-53
2023/12/01 03:47:38;;;;;;;10.77;6.32;;;;;;;10.37;62.25;100454.31;5030195;28;20040;-53
2023/12/01 03:50:04;;;;;;;9.43;5.80;;;;;;;10.37;62.00;100456.13;5032826;28;20026;-52
2023/12/01 03:52:32;;;;;;;7.82;5.32;;;;;;;10.35;62.26;100458.88;5025951;28;20064;-53
2023/12/01 03:55:01;;;;;;;8.98;5.32;;;;;;;10.36;62.09;100457.09;5032384;28;20112;-54
2023/12/01 03:57:27;;;;;;;11.63;5.63;;;;;;;10.34;62.37;100462.53;5029225;28;20159;-53
2023/12/01 03:59:53;;;;;;;10.18;5.72;;;;;;;10.36;62.33;100462.44;5026658;28;20041;-53
2023/12/01 04:02:19;;;;;;;9.95;6.00;;;;;;;10.35;62.22;100469.53;5031912;28;20518;-52
2023/12/01 04:04:44;;;;;;;10.85;5.82;;;;;;;10.36;62.15;100462.44;5029228;28;20037;-53
2023/12/01 04:07:10;;;;;;;9.38;5.07;;;;;;;10.35;61.96;100468.69;5028031;28;20041;-53
2023/12/01 04:09:35;;;;;;;12.95;6.60;;;;;;;10.35;61.94;100474.00;5029550;28;20117;-52
2023/12/01 04:12:00;;;;;;;11.60;6.38;;;;;;;10.35;62.26;100474.00;5031005;28;20033;-53
2023/12/01 04:14:28;;;;;;;11.15;5.40;;;;;;;10.36;62.29;100478.41;5026521;28;20073;-53
2023/12/01 04:16:53;;;;;;;10.98;5.15;;;;;;;10.35;62.25;100468.69;5029468;28;20025;-53
2023/12/01 04:19:18;;;;;;;9.45;5.90;;;;;;;10.34;62.19;100470.50;5029257;28;20043;-54
2023/12/01 04:21:44;;;;;;;11.50;6.07;;;;;;;10.34;62.29;100483.81;5028255;28;20034;-54
2023/12/01 04:24:09;;;;;;;11.48;6.05;;;;;;;10.34;62.05;100485.63;5031954;28;20068;-53
2023/12/01 04:26:34;;;;;;;10.88;5.60;;;;;;;10.35;62.10;100487.31;5028565;28;20037;-53
2023/12/01 04:29:00;;;;;;;14.68;6.72;;;;;;;10.34;61.82;100482.97;5028351;28;20091;-53
2023/12/01 04:31:25;;;;;;;12.25;6.35;;;;;;;10.34;62.11;100488.28;5030809;28;20033;-54
2023/12/01 04:33:51;;;;;;;12.07;6.47;;;;;;;10.34;62.24;100483.81;5028999;28;20041;-53
2023/12/01 04:36:17;;;;;;;10.75;5.50;;;;;;;10.34;61.93;100491.81;5028129;28;20120;-53
2023/12/01 04:38:42;;;;;;;11.18;5.57;;;;;;;10.35;62.00;100497.97;5028595;28;20060;-51
2023/12/01 04:41:09;;;;;;;9.82;5.53;;;;;;;10.34;62.12;100498.94;5028120;28;20034;-53
2023/12/01 04:43:39;;;;;;;11.35;6.10;;;;;;;10.33;62.11;100500.72;5030175;28;20112;-53
2023/12/01 04:46:05;;;;;;;9.80;5.53;;;;;;;10.32;61.78;100495.53;5029030;28;20487;-53
2023/12/01 04:48:31;;;;;;;10.73;6.20;;;;;;;10.34;61.94;100501.59;5027728;28;20033;-53
2023/12/01 04:50:56;;;;;;;11.02;5.75;;;;;;;10.33;61.91;100507.88;5028294;28;20033;-53
2023/12/01 04:53:22;;;;;;;11.43;6.32;;;;;;;10.33;61.87;100506.03;5028389;28;20029;-54
2023/12/01 04:55:48;;;;;;;11.90;6.30;;;;;;;10.33;61.75;100510.53;5027759;28;20033;-53
2023/12/01 04:58:13;;;;;;;11.52;6.47;;;;;;;10.33;61.95;100510.53;5027802;28;20387;-53
2023/12/01 05:00:39;;;;;;;10.20;5.75;;;;;;;10.32;62.12;100507.03;5025685;28;20102;-54
2023/12/01 05:03:06;;;;;;;12.30;6.25;;;;;;;10.33;62.02;100521.16;5025721;28;20392;-54
2023/12/01 05:05:34;;;;;;;12.65;6.60;;;;;;;10.33;61.82;100515.84;5028956;28;20033;-54
2023/12/01 05:08:04;;;;;;;12.80;6.70;;;;;;;10.33;61.97;100521.16;5027243;28;20026;-53
2023/12/01 05:10:31;;;;;;;12.77;7.05;;;;;;;10.32;61.72;100524.81;5029766;28;20037;-54
2023/12/01 05:12:59;;;;;;;10.65;6.03;;;;;;;10.32;61.81;100525.66;5030821;28;20600;-53
2023/12/01 05:15:26;;;;;;;13.27;6.13;;;;;;;10.32;61.71;100528.31;5026789;28;20103;-53
2023/12/01 05:17:53;;;;;;;13.43;6.32;;;;;;;10.31;62.12;100531.91;5027396;28;20095;-53
2023/12/01 05:20:20;;;;;;;11.15;5.90;;;;;;;10.31;61.77;100526.59;5033193;28;20029;-53
2023/12/01 05:22:50;;;;;;;12.35;6.50;;;;;;;10.32;61.90;100532.78;5030694;28;20387;-53
2023/12/01 05:25:18;;;;;;;12.70;6.53;;;;;;;10.32;61.67;100541.63;5027611;28;20084;-53
2023/12/01 05:27:48;;;;;;;12.73;6.60;;;;;;;10.32;61.96;100540.78;5030407;28;20471;-53
2023/12/01 05:30:15;;;;;;;15.00;7.10;;;;;;;10.32;61.58;100540.78;5027423;28;20387;-54
2023/12/01 05:32:42;;;;;;;14.05;6.32;;;;;;;10.31;61.96;100539.91;5027860;28;20029;-53
2023/12/01 05:35:11;;;;;;;13.18;7.05;;;;;;;10.32;61.79;100540.78;5028691;28;20041;-54
2023/12/01 05:37:38;;;;;;;14.80;6.72;;;;;;;10.31;61.68;100552.34;5027874;28;20057;-53
2023/12/01 05:40:06;;;;;;;12.40;6.65;;;;;;;10.31;62.11;100549.69;5028807;28;20041;-54
2023/12/01 05:42:31;;;;;;;13.35;6.60;;;;;;;10.30;61.76;100550.59;5030332;28;20041;-53
2023/12/01 05:44:57;;;;;;;12.02;6.07;;;;;;;10.30;62.06;100548.84;5027030;28;20114;-52
2023/12/01 05:47:22;;;;;;;12.40;6.30;;;;;;;10.30;61.83;100559.50;5027660;28;20033;-54
2023/12/01 05:49:48;;;;;;;10.73;6.05;;;;;;;10.30;62.07;100562.16;5027082;28;20068;-53
2023/12/01 05:52:14;;;;;;;13.85;7.13;;;;;;;10.30;62.00;100564.81;5027157;28;20033;-53
2023/12/01 05:54:39;;;;;;;13.85;6.82;;;;;;;10.31;62.08;100560.34;5028152;28;20059;-53
2023/12/01 05:57:06;;;;;;;11.13;6.22;;;;;;;10.30;61.84;100564.81;5026678;28;20033;-53
2023/12/01 05:59:32;;;;;;;10.30;5.70;;;;;;;10.30;62.01;100566.56;5026504;28;20036;-53
2023/12/01 06:01:58;;;;;;;14.30;6.85;;;;;;;10.31;61.92;100568.31;5029949;28;20057;-53
2023/12/01 06:04:24;;;;;;;10.63;6.00;;;;;;;10.31;61.82;100571.81;5028634;28;20053;-53
2023/12/01 06:06:50;;;;;;;17.38;6.90;;;;;;;10.31;61.85;100573.66;5028005;28;20379;-53
2023/12/01 06:09:17;;;;;;;10.32;5.78;;;;;;;10.31;61.96;100570.97;5026436;28;20125;-53
2023/12/01 06:11:43;;;;;;;13.13;6.30;;;;;;;10.30;61.73;100564.81;5027220;28;20061;-54
2023/12/01 06:14:08;;;;;;;11.73;6.40;;;;;;;10.30;61.90;100567.47;5027824;28;20479;-53
2023/12/01 06:16:34;;;;;;;9.57;5.72;;;;;;;10.29;61.98;100576.38;5027438;28;20037;-53
2023/12/01 06:18:59;;;;;;;11.77;6.25;;;;;;;10.29;62.03;100564.88;5025818;28;20044;-54
2023/12/01 06:21:24;;;;;;;15.23;6.80;;;;;;;10.29;61.99;100567.53;5024931;28;20092;-54
2023/12/01 06:23:49;;;;;;;14.25;6.68;;;;;;;10.30;61.72;100569.22;5029745;28;20057;-54
2023/12/01 06:26:15;;;;;;;11.38;6.47;;;;;;;10.30;61.76;100580.78;5025240;28;20060;-54
2023/12/01 06:28:40;;;;;;;10.27;6.63;;;;;;;10.29;61.95;100579.03;5024091;28;20124;-54
2023/12/01 06:31:06;;;;;;;13.70;7.43;;;;;;;10.30;61.66;100579.88;5027350;28;20032;-54
2023/12/01 06:33:31;;;;;;;10.52;6.22;;;;;;;10.30;61.84;100579.88;5026991;28;20038;-54
2023/12/01 06:35:58;;;;;;;13.18;6.40;;;;;;;10.29;61.96;100572.88;5021266;28;20479;-54
2023/12/01 06:38:23;;;;;;;11.82;6.15;;;;;;;10.29;61.65;100583.50;5027973;28;20032;-54
2023/12/01 06:40:49;;;;;;;10.88;5.97;;;;;;;10.29;61.55;100578.19;5027080;28;20383;-54
2023/12/01 06:43:14;;;;;;;13.20;6.65;;;;;;;10.29;61.62;100575.53;5026404;28;20061;-54
2023/12/01 06:45:41;;;;;;;12.75;7.10;;;;;;;10.29;61.60;100578.19;5027052;28;20494;-54
2023/12/01 06:48:07;;;;;;;14.98;7.20;;;;;;;10.28;61.88;100573.81;5026818;28;20049;-52
2023/12/01 06:50:33;;;;;;;12.65;6.63;;;;;;;10.29;61.56;100584.34;5028329;28;20038;-54
2023/12/01 06:53:01;;;;;;;12.32;6.40;;;;;;;10.28;61.70;100572.03;5029195;28;20034;-54
2023/12/01 06:55:27;;;;;;;14.18;7.45;;;;;;;10.29;61.49;100580.84;5030591;28;20094;-54
2023/12/01 06:57:53;;;;;;;13.65;7.55;;;;;;;10.28;61.41;100581.78;5030182;28;20483;-53
2023/12/01 07:00:29;;;;;;;12.25;7.80;;;;;;;10.28;61.67;100589.78;5029874;28;20026;-53
2023/12/01 07:02:59;;;;;;;12.43;6.88;;;;;;;10.27;61.36;100591.59;5030462;28;20057;-53
2023/12/01 07:05:25;;;;;;;13.32;6.60;;;;;;;10.28;61.46;100592.44;5030024;28;20029;-53
2023/12/01 07:07:51;;;;;;;11.35;7.13;;;;;;;10.28;61.31;100589.78;5033154;28;20087;-54
2023/12/01 07:10:17;;;;;;;12.52;7.20;;;;;;;10.28;61.22;100597.75;5029740;28;20057;-53
2023/12/01 07:12:42;;;;;;;11.77;6.28;;;;;;;10.28;61.35;100592.44;5030732;28;20072;-53
2023/12/01 07:15:11;;;;;;;11.60;6.43;;;;;;;10.28;61.27;100597.75;5047865;28;20079;-53
2023/12/01 07:17:40;;;;;;;12.30;6.22;;;;;;;10.27;61.41;100604.06;5044820;28;20479;-53
2023/12/01 07:20:14;;;;;;;14.02;7.35;;;;;;;10.27;61.53;100606.72;5029826;28;20488;-53
2023/12/01 07:22:43;;;;;;;11.20;6.85;;;;;;;10.28;61.34;100611.06;5029597;28;20095;-53
2023/12/01 07:25:21;;;;;;;10.18;6.03;;;;;;;10.27;61.41;100612.88;5030397;28;20495;-53
2023/12/01 07:27:52;;;;;;;13.18;7.38;;;;;;;10.27;61.46;100612.03;5030955;28;20072;-52
2023/12/01 07:30:18;;;;;;;11.73;6.90;;;;;;;10.27;61.44;100610.22;5030868;28;20042;-53
2023/12/01 07:32:45;;;;;;;10.38;6.40;;;;;;;10.27;61.13;100617.34;5028664;28;20029;-53
2023/12/01 07:35:10;;;;;;;11.38;6.30;;;;;;;10.27;61.30;100612.03;5031041;28;20064;-53
2023/12/01 07:37:37;;;;;;;11.27;6.82;;;;;;;10.27;61.30;100609.38;5032585;28;20290;-53
2023/12/01 07:40:06;;;;;;;13.75;6.82;;;;;;;10.27;61.15;100609.38;5031714;28;20029;-54
2023/12/01 07:42:32;;;;;;;13.75;7.03;;;;;;;10.26;61.14;100611.19;5030826;28;20029;-53
2023/12/01 07:44:58;;;;;;;11.35;6.45;;;;;;;10.26;61.04;100615.63;5032513;28;20044;-53
2023/12/01 07:47:24;;;;;;;14.05;7.57;;;;;;;10.26;61.36;100613.84;5031492;28;20029;-53
2023/12/01 07:49:49;;;;;;;13.52;6.35;;;;;;;10.26;61.30;100615.63;5030243;28;20123;-53
2023/12/01 07:52:15;;;;;;;11.65;6.80;;;;;;;10.26;61.11;100615.63;5032666;28;20080;-53
2023/12/01 07:54:40;;;;;;;13.68;7.35;;;;;;;10.25;61.11;100611.28;5032103;28;20029;-53
2023/12/01 07:57:06;;;;;;;10.80;7.00;;;;;;;10.25;61.19;100613.94;5031763;28;20053;-53
2023/12/01 07:59:31;;;;;;;13.20;7.03;;;;;;;10.25;61.11;100625.44;5031602;28;20041;-53
2023/12/01 08:01:57;;;;;;;12.23;6.78;;;;;;;10.25;61.15;100613.94;5032091;28;20044;-53
2023/12/01 08:04:22;;;;;;;11.25;6.60;;;;;;;10.24;61.26;100614.88;5031173;28;20045;-53
2023/12/01 08:06:49;;;;;;;12.85;6.88;;;;;;;10.24;61.25;100613.06;5031003;28;20402;-53
2023/12/01 08:09:16;;;;;;;11.02;6.07;;;;;;;10.24;60.73;100614.88;5034535;28;20463;-53
2023/12/01 08:11:43;;;;;;;11.90;7.57;;;;;;;10.24;61.40;100606.91;5031525;28;20032;-53
2023/12/01 08:14:10;;;;;;;11.65;6.22;;;;;;;10.23;60.94;100616.69;5030259;28;20084;-53
2023/12/01 08:16:35;;;;;;;12.35;6.15;;;;;;;10.23;61.02;100611.38;5031520;28;20040;-54
2023/12/01 08:19:01;;;;;;;12.80;6.82;;;;;;;10.23;61.19;100615.84;5029589;28;20499;-53
2023/12/01 08:21:26;;;;;;;12.45;6.97;;;;;;;10.24;61.15;100622.88;5031236;28;20061;-53
2023/12/01 08:23:51;;;;;;;11.13;6.50;;;;;;;10.23;61.27;100622.03;5029567;28;20036;-53
2023/12/01 08:26:17;;;;;;;12.02;6.80;;;;;;;10.23;61.04;100626.50;5030634;28;20033;-51
2023/12/01 08:28:42;;;;;;;11.90;7.18;;;;;;;10.23;61.13;100632.66;5028764;28;20043;-53
2023/12/01 08:31:07;;;;;;;13.13;7.03;;;;;;;10.23;61.08;100637.13;5028644;28;20029;-53
2023/12/01 08:33:35;;;;;;;11.48;6.93;;;;;;;10.23;61.12;100632.66;5028902;28;20480;-54
2023/12/01 08:36:01;;;;;;;11.88;7.35;;;;;;;10.22;60.97;100638.06;5030500;28;20030;-52
2023/12/01 08:38:26;;;;;;;8.55;5.47;;;;;;;10.22;60.98;100638.94;5031316;28;20095;-53
2023/12/01 08:40:52;;;;;;;12.30;6.68;;;;;;;10.22;61.14;100646.06;5029081;28;20113;-52
2023/12/01 08:43:17;;;;;;;10.77;6.47;;;;;;;10.24;61.37;100646.81;5029129;28;20402;-53
2023/12/01 08:45:43;;;;;;;11.98;6.47;;;;;;;10.23;60.92;100643.31;5030475;28;20026;-53
2023/12/01 08:48:08;;;;;;;9.57;6.28;;;;;;;10.23;61.14;100647.78;5026255;28;20127;-53
2023/12/01 08:50:33;;;;;;;12.05;6.32;;;;;;;10.23;61.22;100650.44;5028563;28;20030;-53
2023/12/01 08:52:58;;;;;;;10.10;5.88;;;;;;;10.23;61.12;100653.94;5027991;28;20025;-53
2023/12/01 08:55:24;;;;;;;10.55;6.18;;;;;;;10.23;61.25;100650.44;5031184;28;20113;-53
2023/12/01 08:57:49;;;;;;;10.85;5.95;;;;;;;10.23;60.76;100647.78;5031352;28;20032;-53
2023/12/01 09:00:20;;;;;;;9.52;5.82;;;;;;;10.22;60.95;100651.38;5026308;28;20041;-53
2023/12/01 09:02:47;;;;;;;9.88;6.10;;;;;;;10.22;60.86;100652.22;5030771;28;20133;-53
2023/12/01 09:05:13;;;;;;;8.10;5.65;;;;;;;10.22;60.85;100656.72;5030883;28;20083;-53
2023/12/01 09:07:38;;;;;;;8.85;5.20;;;;;;;10.22;61.04;100654.03;5028593;28;20068;-53
2023/12/01 09:10:04;;;;;;;9.88;5.82;;;;;;;10.23;60.83;100653.09;5029317;28;20049;-53
2023/12/01 09:12:30;;;;;;;9.18;5.15;;;;;;;10.23;60.89;100655.75;5027592;28;20029;-53
2023/12/01 09:14:56;;;;;;;10.32;6.03;;;;;;;10.22;61.04;100662.03;5028195;28;20025;-53
2023/12/01 09:17:21;;;;;;;8.73;5.65;;;;;;;10.22;61.13;100662.03;5027068;28;20497;-52
2023/12/01 09:19:47;;;;;;;10.20;5.88;;;;;;;10.21;60.86;100663.84;5030151;28;20033;-53
2023/12/01 09:22:12;;;;;;;7.65;4.68;;;;;;;10.22;61.08;100667.34;5020330;28;20034;-53
2023/12/01 09:24:37;;;;;;;9.50;5.25;;;;;;;10.21;60.76;100670.97;5030066;28;20471;-53
2023/12/01 09:27:03;;;;;;;8.57;5.45;;;;;;;10.22;60.85;100672.66;5027575;28;20098;-53
2023/12/01 09:29:29;;;;;;;8.70;5.55;;;;;;;10.22;61.10;100670.84;5023882;28;20426;-53
2023/12/01 09:31:55;;;;;;;7.90;5.05;;;;;;;10.22;60.84;100678.84;5029740;28;20454;-53
2023/12/01 09:34:21;;;;;;;8.77;5.82;;;;;;;10.23;61.21;100671.72;5028948;28;20128;-53
2023/12/01 09:36:46;;;;;;;8.00;4.43;;;;;;;10.21;60.92;100679.81;5029234;28;20053;-53
2023/12/01 09:39:12;;;;;;;8.10;5.25;;;;;;;10.21;61.06;100676.31;5029713;28;20116;-53
2023/12/01 09:41:38;;;;;;;8.95;5.22;;;;;;;10.22;61.07;100678.00;5027784;28;20528;-54
2023/12/01 09:44:05;;;;;;;8.38;4.45;;;;;;;10.22;60.97;100683.31;5027829;28;20041;-53
2023/12/01 09:46:35;;;;;;;7.15;4.88;;;;;;;10.21;60.97;100684.28;5026428;28;20494;-53
2023/12/01 09:49:04;;;;;;;7.20;4.93;;;;;;;10.22;61.18;100688.63;5029735;28;20029;-54
2023/12/01 09:51:34;;;;;;;8.13;4.75;;;;;;;10.21;61.15;100692.28;5028290;28;20037;-54
2023/12/01 09:53:59;;;;;;;6.25;4.25;;;;;;;10.22;61.21;100688.63;5028606;28;20356;-53
2023/12/01 09:56:26;;;;;;;7.50;5.18;;;;;;;10.22;60.90;100693.97;5025874;28;20055;-53
2023/12/01 09:58:51;;;;;;;7.53;4.63;;;;;;;10.21;61.16;100697.59;5029897;28;20079;-53
2023/12/01 10:01:19;;;;;;;7.72;4.95;;;;;;;10.22;60.98;100693.97;5025952;28;20121;-53
2023/12/01 10:03:44;;;;;;;6.90;4.03;;;;;;;10.23;61.11;100701.00;5028147;28;20059;-53
2023/12/01 10:06:10;;;;;;;8.02;5.10;;;;;;;10.21;60.91;100700.25;5028855;28;20033;-53
2023/12/01 10:08:36;;;;;;;7.53;4.60;;;;;;;10.21;61.08;100698.44;5025795;28;20543;-53
2023/12/01 10:11:18;;;;;;;7.22;4.57;;;;;;;10.24;61.25;100705.34;5028139;28;20030;-53
2023/12/01 10:13:45;;;;;;;7.32;4.28;;;;;;;10.21;61.10;100706.41;5028860;28;20044;-53
2023/12/01 10:16:11;;;;;;;6.63;4.70;;;;;;;10.22;61.25;100707.25;5028742;28;20029;-53
2023/12/01 10:18:37;;;;;;;7.68;4.68;;;;;;;10.21;60.75;100697.59;5026767;28;20120;-53
2023/12/01 10:21:03;;;;;;;7.30;4.10;;;;;;;10.21;61.25;100698.44;5026833;28;20029;-51
2023/12/01 10:23:30;;;;;;;10.32;4.47;;;;;;;10.22;62.07;100697.47;5028669;28;20514;-49
2023/12/01 10:25:56;;;;;;;10.25;5.22;;;;;;;10.24;62.06;100702.69;5029629;28;20143;-51
2023/12/01 10:28:25;;;;;;;8.15;5.63;;;;;;;10.24;62.22;100702.69;5028267;28;20030;-51
2023/12/01 10:30:58;;;;;;;15.93;6.35;;;;;;;10.25;62.70;100699.94;5032457;28;20068;-53
2023/12/01 10:33:26;;;;;;;19.42;6.38;;;;;;;10.28;63.53;100707.72;5030884;28;20029;-51
2023/12/01 10:36:08;;;;;;;13.88;6.18;;;;;;;10.32;63.46;100703.09;5034682;28;20414;-50
2023/12/01 10:38:34;;;;;;;16.23;6.05;;;;;;;10.32;63.88;100705.75;5044393;28;20038;-52
2023/12/01 10:41:03;;;;;;;10.57;5.90;;;;;;;10.32;63.68;100705.75;5031003;28;20120;-50
2023/12/01 10:43:29;;;;;;;12.57;6.10;;;;;;;10.32;63.85;100703.94;5030072;28;20029;-50
2023/12/01 10:45:57;;;;;;;15.85;6.10;;;;;;;10.32;63.81;100697.78;5031655;28;20063;-52
2023/12/01 10:48:25;;;;;;;10.80;5.85;;;;;;;10.31;63.67;100693.41;5031324;28;20045;-50
2023/12/01 10:50:52;;;;;;;21.92;6.60;;;;;;;10.31;63.52;100698.72;5027109;28;20030;-51
2023/12/01 10:53:18;;;;;;;14.95;6.60;;;;;;;10.30;63.82;100692.56;5030789;28;20034;-52
2023/12/01 10:55:47;;;;;;;19.17;6.35;;;;;;;10.29;63.69;100697.94;5032397;28;20450;-51
2023/12/01 10:58:22;;;;;;;12.27;6.40;;;;;;;10.28;63.72;100689.09;5034921;28;20041;-51
2023/12/01 11:01:00;;;;;;;12.25;5.95;;;;;;;10.29;64.00;100692.59;5027156;28;20382;-51
2023/12/01 11:03:29;;;;;;;11.52;6.15;;;;;;;10.28;63.85;100694.44;5029860;28;20345;-51
2023/12/01 11:06:05;;;;;;;10.73;6.32;;;;;;;10.28;63.94;100696.22;5029270;28;20036;-52
2023/12/01 11:08:51;;;;;;;9.93;5.85;;;;;;;10.28;63.63;100690.88;5029568;28;20049;-52
2023/12/01 11:11:44;;;;;;;9.55;5.43;;;;;;;10.27;63.84;100686.53;5031029;28;20033;-50
2023/12/01 11:14:18;;;;;;;10.95;5.80;;;;;;;10.28;64.08;100693.56;5024639;28;20079;-48
2023/12/01 11:16:47;;;;;;;10.02;5.22;;;;;;;10.26;64.07;100685.69;5032378;28;20403;-50
2023/12/01 11:19:13;;;;;;;9.55;5.47;;;;;;;10.26;64.14;100684.81;5033850;28;20029;-52